Chilik Southeast Airfield

Jump to: basic info | weather | comments

Related pages: nearby airports | nearby navaids

Basic information (top)

Location: lon 43.223598, lat 78.732399, elev 4,497 ft / 1,371 m msl
Status: small_airport

Weather (top)

Current conditions for Almaty Airport 74nm (138km) W (rec'd 2015/03/02 16:00Z):

UAAA 021600Z 30002MPS 9999 SCT100 BKN200 M01/M06 Q1015 R88/65D NOSIG

Airport forecast for Almaty Airport 74nm (138km) W (rec'd 2015/03/02 12:18Z):

TAF TAF UAAA 021100Z 0212/0312 16005MPS 2000 BR FU BKN100 TX07/0309Z TNM04/0301Z 
      TEMPO 0212/0301 0600 
      BECMG 0304/0305 04005MPS 5000

Latest comments (top)

Spelling: OK oK its Kazakhstan♄, so you have a ... [read]

Airfield: I came across this airfield on Google, ... [read]

More... (top)

See also NOTAMs and nearby airports and navaids, or visit the Chilik Southeast Airfield page at the main OurAirports website..